sensor_id;sensor_type;location;lat;lon;timestamp;pressure;altitude;pressure_sealevel;temperature
43292;BMP280;28754;47.700;7.924;2023-06-26T00:02:27;91601.81;;;22.22
43292;BMP280;28754;47.700;7.924;2023-06-26T00:05:14;91591.88;;;22.16
43292;BMP280;28754;47.700;7.924;2023-06-26T00:08:04;91605.25;;;22.14
43292;BMP280;28754;47.700;7.924;2023-06-26T00:10:52;91614.91;;;22.14
43292;BMP280;28754;47.700;7.924;2023-06-26T00:13:42;91611.34;;;22.18
43292;BMP280;28754;47.700;7.924;2023-06-26T00:16:30;91604.78;;;22.12
43292;BMP280;28754;47.700;7.924;2023-06-26T00:19:18;91596.97;;;22.12
43292;BMP280;28754;47.700;7.924;2023-06-26T00:22:05;91606.00;;;22.15
43292;BMP280;28754;47.700;7.924;2023-06-26T00:24:52;91599.56;;;22.12
43292;BMP280;28754;47.700;7.924;2023-06-26T00:41:10;91602.00;;;21.97
43292;BMP280;28754;47.700;7.924;2023-06-26T00:43:59;91597.09;;;21.96
43292;BMP280;28754;47.700;7.924;2023-06-26T00:49:30;91601.75;;;21.90
43292;BMP280;28754;47.700;7.924;2023-06-26T00:52:17;91606.16;;;21.90
43292;BMP280;28754;47.700;7.924;2023-06-26T00:55:04;91598.56;;;21.85
43292;BMP280;28754;47.700;7.924;2023-06-26T00:57:51;91597.50;;;21.86
43292;BMP280;28754;47.700;7.924;2023-06-26T01:00:39;91593.22;;;21.81
43292;BMP280;28754;47.700;7.924;2023-06-26T01:03:25;91604.06;;;21.83
43292;BMP280;28754;47.700;7.924;2023-06-26T01:06:14;91608.09;;;21.81
43292;BMP280;28754;47.700;7.924;2023-06-26T01:09:04;91605.38;;;21.77
43292;BMP280;28754;47.700;7.924;2023-06-26T01:11:52;91598.00;;;21.79
43292;BMP280;28754;47.700;7.924;2023-06-26T01:14:38;91589.09;;;21.80
43292;BMP280;28754;47.700;7.924;2023-06-26T01:17:27;91598.31;;;21.78
43292;BMP280;28754;47.700;7.924;2023-06-26T01:20:19;91586.69;;;21.75
43292;BMP280;28754;47.700;7.924;2023-06-26T01:23:24;91595.25;;;21.76
43292;BMP280;28754;47.700;7.924;2023-06-26T01:26:19;91592.44;;;21.81
43292;BMP280;28754;47.700;7.924;2023-06-26T01:29:09;91595.69;;;21.78
43292;BMP280;28754;47.700;7.924;2023-06-26T01:31:57;91590.03;;;21.76
43292;BMP280;28754;47.700;7.924;2023-06-26T01:34:45;91583.63;;;21.73
43292;BMP280;28754;47.700;7.924;2023-06-26T01:37:32;91577.66;;;21.73
43292;BMP280;28754;47.700;7.924;2023-06-26T01:40:18;91596.34;;;21.75
43292;BMP280;28754;47.700;7.924;2023-06-26T01:43:17;91575.22;;;21.68
43292;BMP280;28754;47.700;7.924;2023-06-26T01:55:50;91584.00;;;21.64
43292;BMP280;28754;47.700;7.924;2023-06-26T01:58:43;91598.13;;;21.63
43292;BMP280;28754;47.700;7.924;2023-06-26T02:09:53;91591.88;;;21.55
43292;BMP280;28754;47.700;7.924;2023-06-26T02:12:39;91577.00;;;21.56
43292;BMP280;28754;47.700;7.924;2023-06-26T02:15:26;91587.44;;;21.56
43292;BMP280;28754;47.700;7.924;2023-06-26T02:18:14;91580.38;;;21.56
43292;BMP280;28754;47.700;7.924;2023-06-26T02:21:03;91583.44;;;21.58
43292;BMP280;28754;47.700;7.924;2023-06-26T02:23:50;91586.78;;;21.59
43292;BMP280;28754;47.700;7.924;2023-06-26T02:26:36;91586.19;;;21.53
43292;BMP280;28754;47.700;7.924;2023-06-26T02:29:23;91588.81;;;21.53
43292;BMP280;28754;47.700;7.924;2023-06-26T02:32:10;91594.91;;;21.57
43292;BMP280;28754;47.700;7.924;2023-06-26T02:34:57;91600.47;;;21.56
43292;BMP280;28754;47.700;7.924;2023-06-26T02:37:43;91602.03;;;21.48
43292;BMP280;28754;47.700;7.924;2023-06-26T02:40:31;91598.22;;;21.46
43292;BMP280;28754;47.700;7.924;2023-06-26T02:43:19;91609.13;;;21.39
43292;BMP280;28754;47.700;7.924;2023-06-26T02:46:07;91600.41;;;21.35
43292;BMP280;28754;47.700;7.924;2023-06-26T02:48:57;91613.31;;;21.32
43292;BMP280;28754;47.700;7.924;2023-06-26T02:52:02;91611.75;;;21.39
43292;BMP280;28754;47.700;7.924;2023-06-26T02:54:58;91601.78;;;21.33
43292;BMP280;28754;47.700;7.924;2023-06-26T02:57:50;91602.41;;;21.38
43292;BMP280;28754;47.700;7.924;2023-06-26T03:06:02;91599.50;;;21.32
43292;BMP280;28754;47.700;7.924;2023-06-26T03:08:49;91601.03;;;21.33
43292;BMP280;28754;47.700;7.924;2023-06-26T03:11:36;91607.94;;;21.29
43292;BMP280;28754;47.700;7.924;2023-06-26T03:14:23;91599.22;;;21.25
43292;BMP280;28754;47.700;7.924;2023-06-26T03:17:10;91604.00;;;21.23
43292;BMP280;28754;47.700;7.924;2023-06-26T03:19:59;91614.09;;;21.24
43292;BMP280;28754;47.700;7.924;2023-06-26T03:22:54;91594.03;;;21.25
43292;BMP280;28754;47.700;7.924;2023-06-26T03:25:42;91599.69;;;21.27
43292;BMP280;28754;47.700;7.924;2023-06-26T03:28:41;91595.88;;;21.24
43292;BMP280;28754;47.700;7.924;2023-06-26T03:31:30;91607.66;;;21.30
43292;BMP280;28754;47.700;7.924;2023-06-26T03:34:18;91609.78;;;21.28
43292;BMP280;28754;47.700;7.924;2023-06-26T03:37:05;91603.53;;;21.21
43292;BMP280;28754;47.700;7.924;2023-06-26T03:39:52;91609.94;;;21.23
43292;BMP280;28754;47.700;7.924;2023-06-26T03:42:42;91617.47;;;21.25
43292;BMP280;28754;47.700;7.924;2023-06-26T03:45:32;91604.75;;;21.23
43292;BMP280;28754;47.700;7.924;2023-06-26T03:48:19;91604.00;;;21.23
43292;BMP280;28754;47.700;7.924;2023-06-26T03:51:07;91619.88;;;21.30
43292;BMP280;28754;47.700;7.924;2023-06-26T03:53:54;91618.38;;;21.29
43292;BMP280;28754;47.700;7.924;2023-06-26T03:56:41;91613.66;;;21.22
43292;BMP280;28754;47.700;7.924;2023-06-26T03:59:29;91619.00;;;21.26
43292;BMP280;28754;47.700;7.924;2023-06-26T04:02:21;91612.88;;;21.22
43292;BMP280;28754;47.700;7.924;2023-06-26T04:06:06;91624.63;;;21.28
43292;BMP280;28754;47.700;7.924;2023-06-26T04:08:53;91625.59;;;21.23
43292;BMP280;28754;47.700;7.924;2023-06-26T04:11:39;91629.41;;;21.26
43292;BMP280;28754;47.700;7.924;2023-06-26T04:14:26;91627.88;;;21.25
43292;BMP280;28754;47.700;7.924;2023-06-26T04:17:13;91632.78;;;21.26
43292;BMP280;28754;47.700;7.924;2023-06-26T04:19:59;91636.16;;;21.27
43292;BMP280;28754;47.700;7.924;2023-06-26T04:22:46;91635.84;;;21.28
43292;BMP280;28754;47.700;7.924;2023-06-26T04:25:34;91622.66;;;21.25
43292;BMP280;28754;47.700;7.924;2023-06-26T04:28:25;91621.16;;;21.24
43292;BMP280;28754;47.700;7.924;2023-06-26T04:31:13;91637.22;;;21.26
43292;BMP280;28754;47.700;7.924;2023-06-26T04:34:04;91632.34;;;21.24
43292;BMP280;28754;47.700;7.924;2023-06-26T04:36:54;91643.00;;;21.31
43292;BMP280;28754;47.700;7.924;2023-06-26T04:39:51;91646.69;;;21.38
43292;BMP280;28754;47.700;7.924;2023-06-26T04:42:39;91636.28;;;21.38
43292;BMP280;28754;47.700;7.924;2023-06-26T04:45:26;91649.88;;;21.44
43292;BMP280;28754;47.700;7.924;2023-06-26T04:48:13;91653.06;;;21.49
43292;BMP280;28754;47.700;7.924;2023-06-26T04:51:00;91636.34;;;21.50
43292;BMP280;28754;47.700;7.924;2023-06-26T04:53:47;91630.94;;;21.55
43292;BMP280;28754;47.700;7.924;2023-06-26T04:56:37;91629.25;;;21.59
43292;BMP280;28754;47.700;7.924;2023-06-26T04:59:23;91645.03;;;21.63
43292;BMP280;28754;47.700;7.924;2023-06-26T05:02:10;91651.25;;;21.70
43292;BMP280;28754;47.700;7.924;2023-06-26T05:05:02;91634.09;;;21.69
43292;BMP280;28754;47.700;7.924;2023-06-26T05:09:10;91629.00;;;21.72
43292;BMP280;28754;47.700;7.924;2023-06-26T05:32:40;91634.47;;;22.00
43292;BMP280;28754;47.700;7.924;2023-06-26T05:35:29;91643.19;;;22.03
43292;BMP280;28754;47.700;7.924;2023-06-26T05:38:20;91647.31;;;22.04
43292;BMP280;28754;47.700;7.924;2023-06-26T05:41:07;91645.94;;;22.07
43292;BMP280;28754;47.700;7.924;2023-06-26T05:43:54;91648.66;;;22.10
43292;BMP280;28754;47.700;7.924;2023-06-26T05:46:40;91648.06;;;22.13
43292;BMP280;28754;47.700;7.924;2023-06-26T05:49:27;91647.09;;;22.18
43292;BMP280;28754;47.700;7.924;2023-06-26T05:52:14;91643.53;;;22.22
43292;BMP280;28754;47.700;7.924;2023-06-26T05:55:02;91650.41;;;22.27
43292;BMP280;28754;47.700;7.924;2023-06-26T05:57:51;91643.91;;;22.33
43292;BMP280;28754;47.700;7.924;2023-06-26T06:00:39;91645.56;;;22.37
43292;BMP280;28754;47.700;7.924;2023-06-26T06:03:27;91637.97;;;22.44
43292;BMP280;28754;47.700;7.924;2023-06-26T06:06:14;91644.38;;;22.46
43292;BMP280;28754;47.700;7.924;2023-06-26T06:09:02;91659.41;;;22.49
43292;BMP280;28754;47.700;7.924;2023-06-26T06:11:49;91649.97;;;22.57
43292;BMP280;28754;47.700;7.924;2023-06-26T06:14:36;91653.13;;;22.62
43292;BMP280;28754;47.700;7.924;2023-06-26T06:17:22;91643.56;;;22.66
43292;BMP280;28754;47.700;7.924;2023-06-26T06:20:10;91642.28;;;22.72
43292;BMP280;28754;47.700;7.924;2023-06-26T06:22:56;91647.66;;;22.75
43292;BMP280;28754;47.700;7.924;2023-06-26T06:25:43;91645.44;;;22.77
43292;BMP280;28754;47.700;7.924;2023-06-26T06:28:30;91644.06;;;22.80
43292;BMP280;28754;47.700;7.924;2023-06-26T06:31:17;91655.38;;;22.84
43292;BMP280;28754;47.700;7.924;2023-06-26T06:34:03;91647.38;;;22.89
43292;BMP280;28754;47.700;7.924;2023-06-26T06:36:50;91651.50;;;22.90
43292;BMP280;28754;47.700;7.924;2023-06-26T06:39:37;91649.91;;;22.97
43292;BMP280;28754;47.700;7.924;2023-06-26T06:42:23;91654.47;;;23.00
43292;BMP280;28754;47.700;7.924;2023-06-26T06:45:10;91653.16;;;23.06
43292;BMP280;28754;47.700;7.924;2023-06-26T06:47:57;91660.03;;;23.10
43292;BMP280;28754;47.700;7.924;2023-06-26T06:50:43;91653.06;;;23.14
43292;BMP280;28754;47.700;7.924;2023-06-26T06:53:31;91662.41;;;23.15
43292;BMP280;28754;47.700;7.924;2023-06-26T06:56:18;91660.69;;;23.19
43292;BMP280;28754;47.700;7.924;2023-06-26T06:59:04;91657.00;;;23.20
43292;BMP280;28754;47.700;7.924;2023-06-26T07:01:51;91666.03;;;23.23
43292;BMP280;28754;47.700;7.924;2023-06-26T07:04:38;91662.75;;;23.26
43292;BMP280;28754;47.700;7.924;2023-06-26T07:07:32;91673.00;;;23.31
43292;BMP280;28754;47.700;7.924;2023-06-26T07:10:20;91664.63;;;23.37
43292;BMP280;28754;47.700;7.924;2023-06-26T07:13:07;91671.47;;;23.42
43292;BMP280;28754;47.700;7.924;2023-06-26T07:15:53;91676.69;;;23.42
43292;BMP280;28754;47.700;7.924;2023-06-26T07:18:40;91662.56;;;23.42
43292;BMP280;28754;47.700;7.924;2023-06-26T07:21:36;91668.44;;;23.40
43292;BMP280;28754;47.700;7.924;2023-06-26T07:24:29;91629.66;;;23.42
43292;BMP280;28754;47.700;7.924;2023-06-26T07:27:19;91646.22;;;23.45
43292;BMP280;28754;47.700;7.924;2023-06-26T07:30:07;91670.84;;;23.56
43292;BMP280;28754;47.700;7.924;2023-06-26T07:32:57;91653.88;;;23.62
43292;BMP280;28754;47.700;7.924;2023-06-26T07:35:44;91685.69;;;23.64
43292;BMP280;28754;47.700;7.924;2023-06-26T07:38:31;91680.66;;;23.71
43292;BMP280;28754;47.700;7.924;2023-06-26T07:41:18;91672.25;;;23.77
43292;BMP280;28754;47.700;7.924;2023-06-26T07:44:05;91669.44;;;23.82
43292;BMP280;28754;47.700;7.924;2023-06-26T07:46:52;91665.41;;;23.85
43292;BMP280;28754;47.700;7.924;2023-06-26T07:49:40;91677.19;;;23.91
43292;BMP280;28754;47.700;7.924;2023-06-26T07:52:27;91678.00;;;23.95
43292;BMP280;28754;47.700;7.924;2023-06-26T07:55:16;91669.63;;;24.01
43292;BMP280;28754;47.700;7.924;2023-06-26T07:58:08;91675.06;;;24.08
43292;BMP280;28754;47.700;7.924;2023-06-26T08:00:55;91669.59;;;24.13
43292;BMP280;28754;47.700;7.924;2023-06-26T08:03:42;91657.28;;;24.13
43292;BMP280;28754;47.700;7.924;2023-06-26T08:06:33;91672.41;;;24.20
43292;BMP280;28754;47.700;7.924;2023-06-26T08:09:26;91686.69;;;24.22
43292;BMP280;28754;47.700;7.924;2023-06-26T08:12:13;91677.00;;;24.23
43292;BMP280;28754;47.700;7.924;2023-06-26T08:15:00;91680.69;;;24.22
43292;BMP280;28754;47.700;7.924;2023-06-26T08:17:49;91686.50;;;24.15
43292;BMP280;28754;47.700;7.924;2023-06-26T08:20:37;91681.81;;;24.09
43292;BMP280;28754;47.700;7.924;2023-06-26T08:23:23;91690.97;;;24.03
43292;BMP280;28754;47.700;7.924;2023-06-26T08:26:11;91683.88;;;24.04
43292;BMP280;28754;47.700;7.924;2023-06-26T08:28:57;91697.63;;;24.01
43292;BMP280;28754;47.700;7.924;2023-06-26T08:31:44;91679.44;;;24.04
43292;BMP280;28754;47.700;7.924;2023-06-26T08:34:31;91679.88;;;24.06
43292;BMP280;28754;47.700;7.924;2023-06-26T08:37:17;91681.06;;;24.09
43292;BMP280;28754;47.700;7.924;2023-06-26T08:40:06;91683.13;;;24.15
43292;BMP280;28754;47.700;7.924;2023-06-26T08:42:53;91675.03;;;24.20
43292;BMP280;28754;47.700;7.924;2023-06-26T08:45:40;91679.50;;;24.31
43292;BMP280;28754;47.700;7.924;2023-06-26T08:48:32;91676.22;;;24.34
43292;BMP280;28754;47.700;7.924;2023-06-26T08:51:23;91683.66;;;24.32
43292;BMP280;28754;47.700;7.924;2023-06-26T08:54:15;91673.38;;;24.39
43292;BMP280;28754;47.700;7.924;2023-06-26T08:57:04;91671.19;;;24.41
43292;BMP280;28754;47.700;7.924;2023-06-26T08:59:53;91675.84;;;24.48
43292;BMP280;28754;47.700;7.924;2023-06-26T09:02:40;91683.31;;;24.61
43292;BMP280;28754;47.700;7.924;2023-06-26T09:05:27;91684.78;;;24.74
43292;BMP280;28754;47.700;7.924;2023-06-26T09:08:14;91688.16;;;24.74
43292;BMP280;28754;47.700;7.924;2023-06-26T09:11:01;91678.69;;;24.70
43292;BMP280;28754;47.700;7.924;2023-06-26T09:13:47;91688.66;;;24.64
43292;BMP280;28754;47.700;7.924;2023-06-26T09:16:40;91692.28;;;24.60
43292;BMP280;28754;47.700;7.924;2023-06-26T09:19:28;91684.75;;;24.58
43292;BMP280;28754;47.700;7.924;2023-06-26T09:22:15;91691.72;;;24.66
43292;BMP280;28754;47.700;7.924;2023-06-26T09:25:03;91688.47;;;24.84
43292;BMP280;28754;47.700;7.924;2023-06-26T09:27:51;91688.78;;;24.95
43292;BMP280;28754;47.700;7.924;2023-06-26T09:30:38;91689.19;;;24.97
43292;BMP280;28754;47.700;7.924;2023-06-26T09:33:25;91689.03;;;25.05
43292;BMP280;28754;47.700;7.924;2023-06-26T09:36:20;91703.72;;;25.21
43292;BMP280;28754;47.700;7.924;2023-06-26T09:39:11;91688.75;;;25.22
43292;BMP280;28754;47.700;7.924;2023-06-26T09:41:59;91690.34;;;25.26
43292;BMP280;28754;47.700;7.924;2023-06-26T09:44:47;91690.63;;;25.37
43292;BMP280;28754;47.700;7.924;2023-06-26T09:47:34;91697.06;;;25.54
43292;BMP280;28754;47.700;7.924;2023-06-26T09:50:22;91690.22;;;25.65
43292;BMP280;28754;47.700;7.924;2023-06-26T09:53:13;91691.06;;;25.69
43292;BMP280;28754;47.700;7.924;2023-06-26T09:56:06;91689.03;;;25.63
43292;BMP280;28754;47.700;7.924;2023-06-26T09:58:56;91693.13;;;25.49
43292;BMP280;28754;47.700;7.924;2023-06-26T10:01:46;91692.38;;;25.48
43292;BMP280;28754;47.700;7.924;2023-06-26T10:04:35;91699.69;;;25.54
43292;BMP280;28754;47.700;7.924;2023-06-26T10:07:22;91697.97;;;25.62
43292;BMP280;28754;47.700;7.924;2023-06-26T10:10:11;91698.94;;;25.69
43292;BMP280;28754;47.700;7.924;2023-06-26T10:13:16;91706.78;;;25.85
43292;BMP280;28754;47.700;7.924;2023-06-26T10:16:07;91711.13;;;25.77
43292;BMP280;28754;47.700;7.924;2023-06-26T10:19:06;91711.19;;;25.81
43292;BMP280;28754;47.700;7.924;2023-06-26T10:21:55;91702.53;;;25.95
43292;BMP280;28754;47.700;7.924;2023-06-26T10:24:43;91714.44;;;26.08
43292;BMP280;28754;47.700;7.924;2023-06-26T10:27:39;91703.75;;;26.17
43292;BMP280;28754;47.700;7.924;2023-06-26T10:30:31;91703.31;;;26.30
43292;BMP280;28754;47.700;7.924;2023-06-26T10:33:19;91708.63;;;26.49
43292;BMP280;28754;47.700;7.924;2023-06-26T10:36:19;91706.88;;;26.37
43292;BMP280;28754;47.700;7.924;2023-06-26T10:39:06;91713.69;;;26.23
43292;BMP280;28754;47.700;7.924;2023-06-26T10:42:08;91722.81;;;26.14
43292;BMP280;28754;47.700;7.924;2023-06-26T10:45:16;91718.09;;;26.19
43292;BMP280;28754;47.700;7.924;2023-06-26T10:48:03;91725.44;;;26.14
43292;BMP280;28754;47.700;7.924;2023-06-26T10:50:53;91727.16;;;25.91
43292;BMP280;28754;47.700;7.924;2023-06-26T10:53:40;91723.03;;;25.75
43292;BMP280;28754;47.700;7.924;2023-06-26T10:56:50;91725.47;;;25.68
43292;BMP280;28754;47.700;7.924;2023-06-26T11:02:55;91724.72;;;25.83
43292;BMP280;28754;47.700;7.924;2023-06-26T11:05:41;91735.72;;;25.88
43292;BMP280;28754;47.700;7.924;2023-06-26T11:08:49;91734.72;;;25.77
43292;BMP280;28754;47.700;7.924;2023-06-26T11:14:50;91736.75;;;25.84
43292;BMP280;28754;47.700;7.924;2023-06-26T11:22:28;91704.81;;;25.97
43292;BMP280;28754;47.700;7.924;2023-06-26T11:25:55;91707.88;;;25.99
43292;BMP280;28754;47.700;7.924;2023-06-26T11:28:57;91723.69;;;26.02
43292;BMP280;28754;47.700;7.924;2023-06-26T11:32:14;91730.00;;;26.17
43292;BMP280;28754;47.700;7.924;2023-06-26T11:39:29;91724.94;;;26.57
43292;BMP280;28754;47.700;7.924;2023-06-26T11:42:25;91713.47;;;26.65
43292;BMP280;28754;47.700;7.924;2023-06-26T11:45:19;91729.00;;;26.55
43292;BMP280;28754;47.700;7.924;2023-06-26T11:53:16;91740.69;;;26.57
43292;BMP280;28754;47.700;7.924;2023-06-26T11:56:22;91731.25;;;26.72
43292;BMP280;28754;47.700;7.924;2023-06-26T11:59:38;91725.25;;;26.90
43292;BMP280;28754;47.700;7.924;2023-06-26T12:02:27;91712.53;;;26.92
43292;BMP280;28754;47.700;7.924;2023-06-26T12:05:20;91694.63;;;26.97
43292;BMP280;28754;47.700;7.924;2023-06-26T12:08:09;91707.41;;;26.99
43292;BMP280;28754;47.700;7.924;2023-06-26T12:10:56;91701.13;;;27.03
43292;BMP280;28754;47.700;7.924;2023-06-26T12:13:44;91715.34;;;27.02
43292;BMP280;28754;47.700;7.924;2023-06-26T12:16:35;91710.81;;;26.99
43292;BMP280;28754;47.700;7.924;2023-06-26T12:19:25;91716.06;;;26.99
43292;BMP280;28754;47.700;7.924;2023-06-26T12:22:14;91718.88;;;27.10
43292;BMP280;28754;47.700;7.924;2023-06-26T12:25:01;91717.06;;;27.14
43292;BMP280;28754;47.700;7.924;2023-06-26T12:27:48;91729.94;;;27.19
43292;BMP280;28754;47.700;7.924;2023-06-26T12:30:39;91713.69;;;27.13
43292;BMP280;28754;47.700;7.924;2023-06-26T12:33:26;91723.16;;;27.18
43292;BMP280;28754;47.700;7.924;2023-06-26T12:36:16;91734.72;;;27.13
43292;BMP280;28754;47.700;7.924;2023-06-26T12:39:02;91735.41;;;27.10
43292;BMP280;28754;47.700;7.924;2023-06-26T12:42:00;91719.56;;;27.07
43292;BMP280;28754;47.700;7.924;2023-06-26T12:44:48;91720.69;;;27.06
43292;BMP280;28754;47.700;7.924;2023-06-26T12:47:35;91723.38;;;27.09
43292;BMP280;28754;47.700;7.924;2023-06-26T12:50:24;91732.91;;;27.17
43292;BMP280;28754;47.700;7.924;2023-06-26T12:53:11;91721.09;;;27.08
43292;BMP280;28754;47.700;7.924;2023-06-26T12:55:58;91722.16;;;27.03
43292;BMP280;28754;47.700;7.924;2023-06-26T12:58:45;91715.34;;;27.02
43292;BMP280;28754;47.700;7.924;2023-06-26T13:01:32;91699.75;;;26.91
43292;BMP280;28754;47.700;7.924;2023-06-26T13:04:20;91698.00;;;26.79
43292;BMP280;28754;47.700;7.924;2023-06-26T13:07:08;91682.31;;;26.83
43292;BMP280;28754;47.700;7.924;2023-06-26T13:09:55;91689.28;;;26.94
43292;BMP280;28754;47.700;7.924;2023-06-26T13:12:42;91680.84;;;27.04
43292;BMP280;28754;47.700;7.924;2023-06-26T13:15:29;91685.88;;;27.12
43292;BMP280;28754;47.700;7.924;2023-06-26T13:18:16;91693.13;;;27.19
43292;BMP280;28754;47.700;7.924;2023-06-26T13:21:02;91690.22;;;27.24
43292;BMP280;28754;47.700;7.924;2023-06-26T13:23:49;91695.47;;;27.24
43292;BMP280;28754;47.700;7.924;2023-06-26T13:26:50;91688.41;;;27.27
43292;BMP280;28754;47.700;7.924;2023-06-26T13:29:38;91700.03;;;27.26
43292;BMP280;28754;47.700;7.924;2023-06-26T13:32:25;91702.59;;;27.23
43292;BMP280;28754;47.700;7.924;2023-06-26T13:35:12;91704.75;;;27.18
43292;BMP280;28754;47.700;7.924;2023-06-26T13:38:00;91698.41;;;27.19
43292;BMP280;28754;47.700;7.924;2023-06-26T13:40:46;91694.00;;;27.26
43292;BMP280;28754;47.700;7.924;2023-06-26T13:43:33;91683.22;;;27.31
43292;BMP280;28754;47.700;7.924;2023-06-26T13:46:20;91688.88;;;27.33
43292;BMP280;28754;47.700;7.924;2023-06-26T13:49:07;91694.94;;;27.37
43292;BMP280;28754;47.700;7.924;2023-06-26T13:51:54;91693.44;;;27.36
43292;BMP280;28754;47.700;7.924;2023-06-26T13:54:45;91684.38;;;27.33
43292;BMP280;28754;47.700;7.924;2023-06-26T13:57:34;91684.00;;;27.35
43292;BMP280;28754;47.700;7.924;2023-06-26T14:00:21;91681.91;;;27.40
43292;BMP280;28754;47.700;7.924;2023-06-26T14:03:10;91682.34;;;27.46
43292;BMP280;28754;47.700;7.924;2023-06-26T14:05:59;91680.44;;;27.43
43292;BMP280;28754;47.700;7.924;2023-06-26T14:08:47;91687.91;;;27.41
43292;BMP280;28754;47.700;7.924;2023-06-26T14:11:34;91684.72;;;27.32
43292;BMP280;28754;47.700;7.924;2023-06-26T14:14:22;91685.66;;;27.21
43292;BMP280;28754;47.700;7.924;2023-06-26T14:17:08;91690.13;;;27.20
43292;BMP280;28754;47.700;7.924;2023-06-26T14:19:57;91675.81;;;27.18
43292;BMP280;28754;47.700;7.924;2023-06-26T14:22:44;91683.44;;;27.23
43292;BMP280;28754;47.700;7.924;2023-06-26T14:25:31;91688.75;;;27.26
43292;BMP280;28754;47.700;7.924;2023-06-26T14:28:18;91683.78;;;27.21
43292;BMP280;28754;47.700;7.924;2023-06-26T14:31:05;91696.09;;;27.17
43292;BMP280;28754;47.700;7.924;2023-06-26T14:33:52;91677.28;;;27.15
43292;BMP280;28754;47.700;7.924;2023-06-26T14:36:39;91676.19;;;27.16
43292;BMP280;28754;47.700;7.924;2023-06-26T14:39:25;91680.34;;;27.17
43292;BMP280;28754;47.700;7.924;2023-06-26T14:42:12;91685.66;;;27.21
43292;BMP280;28754;47.700;7.924;2023-06-26T14:44:59;91687.25;;;27.25
43292;BMP280;28754;47.700;7.924;2023-06-26T14:47:45;91682.03;;;27.28
43292;BMP280;28754;47.700;7.924;2023-06-26T14:50:32;91685.03;;;27.27
43292;BMP280;28754;47.700;7.924;2023-06-26T14:53:19;91678.97;;;27.26
43292;BMP280;28754;47.700;7.924;2023-06-26T14:56:06;91685.38;;;27.26
43292;BMP280;28754;47.700;7.924;2023-06-26T14:58:54;91681.91;;;27.22
43292;BMP280;28754;47.700;7.924;2023-06-26T15:01:41;91687.88;;;27.19
43292;BMP280;28754;47.700;7.924;2023-06-26T15:04:27;91675.41;;;27.16
43292;BMP280;28754;47.700;7.924;2023-06-26T15:07:17;91687.38;;;27.13
43292;BMP280;28754;47.700;7.924;2023-06-26T15:10:07;91687.38;;;27.13
43292;BMP280;28754;47.700;7.924;2023-06-26T15:13:16;91672.53;;;27.02
43292;BMP280;28754;47.700;7.924;2023-06-26T15:16:13;91671.41;;;27.03
43292;BMP280;28754;47.700;7.924;2023-06-26T15:19:15;91675.72;;;26.92
43292;BMP280;28754;47.700;7.924;2023-06-26T15:26:25;91667.78;;;26.89
43292;BMP280;28754;47.700;7.924;2023-06-26T15:29:12;91665.22;;;26.92
43292;BMP280;28754;47.700;7.924;2023-06-26T15:32:01;91682.16;;;26.94
43292;BMP280;28754;47.700;7.924;2023-06-26T15:34:48;91675.16;;;27.02
43292;BMP280;28754;47.700;7.924;2023-06-26T15:37:47;91657.53;;;27.02
43292;BMP280;28754;47.700;7.924;2023-06-26T15:40:49;91670.25;;;27.00
43292;BMP280;28754;47.700;7.924;2023-06-26T15:55:57;91662.25;;;26.93
43292;BMP280;28754;47.700;7.924;2023-06-26T15:58:51;91657.69;;;26.91
43292;BMP280;28754;47.700;7.924;2023-06-26T16:29:17;91646.97;;;26.43
43292;BMP280;28754;47.700;7.924;2023-06-26T16:32:12;91647.25;;;26.38
43292;BMP280;28754;47.700;7.924;2023-06-26T17:03:11;91659.31;;;25.74
43292;BMP280;28754;47.700;7.924;2023-06-26T17:06:01;91649.34;;;25.64
43292;BMP280;28754;47.700;7.924;2023-06-26T17:09:50;91668.66;;;25.56
43292;BMP280;28754;47.700;7.924;2023-06-26T17:13:00;91670.28;;;25.49
43292;BMP280;28754;47.700;7.924;2023-06-26T17:21:07;91668.25;;;25.43
43292;BMP280;28754;47.700;7.924;2023-06-26T17:28:21;91662.00;;;25.32
43292;BMP280;28754;47.700;7.924;2023-06-26T17:31:19;91666.44;;;25.28
43292;BMP280;28754;47.700;7.924;2023-06-26T17:54:50;91688.00;;;24.94
43292;BMP280;28754;47.700;7.924;2023-06-26T18:07:44;91697.84;;;24.85
43292;BMP280;28754;47.700;7.924;2023-06-26T18:10:32;91697.75;;;24.82
43292;BMP280;28754;47.700;7.924;2023-06-26T18:13:18;91696.91;;;24.78
43292;BMP280;28754;47.700;7.924;2023-06-26T18:20:33;91699.66;;;24.70
43292;BMP280;28754;47.700;7.924;2023-06-26T18:23:34;91692.72;;;24.62
43292;BMP280;28754;47.700;7.924;2023-06-26T18:26:24;91703.84;;;24.59
43292;BMP280;28754;47.700;7.924;2023-06-26T18:29:13;91692.75;;;24.50
43292;BMP280;28754;47.700;7.924;2023-06-26T18:32:03;91704.97;;;24.46
43292;BMP280;28754;47.700;7.924;2023-06-26T18:34:54;91703.16;;;24.35
43292;BMP280;28754;47.700;7.924;2023-06-26T18:37:43;91711.69;;;24.32
43292;BMP280;28754;47.700;7.924;2023-06-26T18:43:06;91717.13;;;24.15
43292;BMP280;28754;47.700;7.924;2023-06-26T18:45:55;91710.59;;;24.09
43292;BMP280;28754;47.700;7.924;2023-06-26T18:48:42;91720.19;;;24.05
43292;BMP280;28754;47.700;7.924;2023-06-26T18:51:33;91734.69;;;24.03
43292;BMP280;28754;47.700;7.924;2023-06-26T18:54:21;91737.97;;;24.00
43292;BMP280;28754;47.700;7.924;2023-06-26T18:57:08;91750.94;;;23.96
43292;BMP280;28754;47.700;7.924;2023-06-26T18:59:55;91718.91;;;23.87
43292;BMP280;28754;47.700;7.924;2023-06-26T19:02:44;91727.41;;;23.84
43292;BMP280;28754;47.700;7.924;2023-06-26T19:05:31;91720.44;;;23.77
43292;BMP280;28754;47.700;7.924;2023-06-26T19:08:31;91741.59;;;23.72
43292;BMP280;28754;47.700;7.924;2023-06-26T19:11:49;91755.81;;;23.62
43292;BMP280;28754;47.700;7.924;2023-06-26T19:14:38;91738.63;;;23.61
43292;BMP280;28754;47.700;7.924;2023-06-26T19:17:29;91738.06;;;23.56
43292;BMP280;28754;47.700;7.924;2023-06-26T19:20:19;91738.13;;;23.47
43292;BMP280;28754;47.700;7.924;2023-06-26T19:23:06;91739.22;;;23.46
43292;BMP280;28754;47.700;7.924;2023-06-26T19:25:52;91744.03;;;23.44
43292;BMP280;28754;47.700;7.924;2023-06-26T19:28:39;91747.25;;;23.42
43292;BMP280;28754;47.700;7.924;2023-06-26T19:31:26;91757.63;;;23.38
43292;BMP280;28754;47.700;7.924;2023-06-26T19:34:17;91757.84;;;23.33
43292;BMP280;28754;47.700;7.924;2023-06-26T19:37:04;91777.72;;;23.26
43292;BMP280;28754;47.700;7.924;2023-06-26T19:39:51;91765.94;;;23.20
43292;BMP280;28754;47.700;7.924;2023-06-26T19:42:38;91778.03;;;23.12